Terminal Aerodrome Forecast
Issued by NWS

Home | Current Version | Previous Version | Text Only | Print | Product List | Glossary Off
Versions: 1 2 3 4 5 6 7 8 9 10 11 12 13 14 15 16 17

750
FTUS43 KTOP 251737
TAFFOE
TAF
KFOE 251737Z 2518/2618 16014G21KT P6SM FEW250
     FM260100 12006KT P6SM BKN150
     FM261200 36005KT P6SM BKN020
     FM261600 35008KT P6SM SCT025 BKN050=

USA.gov is the U.S. government's official web portal to all federal, state and local government web resources and services.